Time;durP1;ratioP1;P1;durP2;ratioP2;P2;SDS_P1;SDS_P2;PMS_P1;PMS_P2;Temp;Humidity;BMP_temperature;BMP_pressure;BME280_temperature;BME280_humidity;BME280_pressure;Samples;Min_cycle;Max_cycle;Signal;HPM_P1;HPM_P2
2021/03/18 00:01:51;;;;;;;12.18;8.07;;;;;;;7.58;53.79;100659.03;5109792;28;20055;-74
2021/03/18 00:04:55;;;;;;;15.07;8.90;;;;;;;7.50;55.38;100653.38;5110349;28;20402;-74
2021/03/18 00:08:01;;;;;;;16.27;8.65;;;;;;;7.42;56.54;100663.72;5110732;28;20042;-75
2021/03/18 00:11:09;;;;;;;14.70;8.70;;;;;;;7.42;57.34;100661.06;5109070;28;20039;-74
2021/03/18 00:14:17;;;;;;;14.32;8.70;;;;;;;7.40;57.31;100660.31;5109330;28;20059;-76
2021/03/18 00:17:21;;;;;;;13.35;8.30;;;;;;;7.39;58.23;100664.78;5110610;28;20043;-77
2021/03/18 00:20:26;;;;;;;11.88;8.65;;;;;;;7.35;58.24;100660.66;5108880;28;20046;-76
2021/03/18 00:23:31;;;;;;;13.80;8.00;;;;;;;7.40;58.43;100679.00;5109555;28;20047;-75
2021/03/18 00:26:36;;;;;;;13.82;8.30;;;;;;;7.28;59.39;100674.53;5110352;28;20066;-76
2021/03/18 00:29:40;;;;;;;14.77;8.02;;;;;;;7.33;59.72;100672.38;5110377;28;20497;-76
2021/03/18 00:32:49;;;;;;;11.38;7.85;;;;;;;7.32;60.65;100673.34;5109684;28;20062;-76
2021/03/18 00:35:54;;;;;;;13.30;8.40;;;;;;;7.32;62.58;100678.69;5108793;28;20039;-76
2021/03/18 00:39:00;;;;;;;13.70;8.45;;;;;;;7.37;63.29;100684.56;5109953;28;20502;-75
2021/03/18 00:42:05;;;;;;;11.93;6.72;;;;;;;7.42;63.96;100690.44;5107488;28;20509;-77
2021/03/18 00:45:10;;;;;;;10.38;6.25;;;;;;;7.29;64.01;100665.53;5108603;28;20047;-77
2021/03/18 00:48:15;;;;;;;12.18;7.00;;;;;;;7.32;63.92;100676.88;5108709;28;20051;-77
2021/03/18 00:51:22;;;;;;;9.52;6.47;;;;;;;7.42;63.43;100677.09;5107059;28;20055;-73
2021/03/18 00:54:26;;;;;;;9.63;6.43;;;;;;;7.40;63.34;100671.88;5108415;28;20043;-77
2021/03/18 00:57:34;;;;;;;12.45;6.80;;;;;;;7.29;62.34;100669.06;5096893;28;20047;-73
2021/03/18 01:00:43;;;;;;;11.63;6.90;;;;;;;7.31;61.80;100666.31;5091902;28;20039;-73
2021/03/18 01:03:47;;;;;;;12.13;6.85;;;;;;;7.32;61.21;100665.31;5101927;28;20505;-75
2021/03/18 01:06:52;;;;;;;12.95;7.50;;;;;;;7.34;60.82;100666.94;5094034;28;20051;-73
2021/03/18 01:09:56;;;;;;;12.25;7.18;;;;;;;7.26;60.51;100663.09;5091107;28;20050;-73
2021/03/18 01:13:01;;;;;;;12.50;7.90;;;;;;;7.22;59.93;100657.09;5093877;28;20043;-74
2021/03/18 01:16:08;;;;;;;12.38;8.27;;;;;;;7.18;59.04;100655.63;5094447;28;20047;-73
2021/03/18 01:19:12;;;;;;;13.55;9.30;;;;;;;7.05;58.02;100642.25;5094176;28;20055;-73
2021/03/18 01:22:17;;;;;;;18.85;9.40;;;;;;;6.95;56.99;100641.19;5095537;28;20418;-74
2021/03/18 01:25:21;;;;;;;12.55;9.25;;;;;;;7.00;56.42;100639.06;5095633;28;20051;-73
2021/03/18 01:28:26;;;;;;;17.85;9.98;;;;;;;6.93;55.72;100636.91;5091120;28;20044;-74
2021/03/18 01:31:31;;;;;;;15.90;8.45;;;;;;;6.95;55.15;100645.66;5094532;28;20067;-74
2021/03/18 01:34:35;;;;;;;14.80;9.23;;;;;;;6.93;55.13;100642.25;5095071;28;20047;-74
2021/03/18 01:37:40;;;;;;;18.67;9.57;;;;;;;6.89;54.83;100633.56;5095433;28;20047;-74
2021/03/18 01:40:45;;;;;;;18.77;9.32;;;;;;;6.85;55.12;100628.56;5093862;28;20142;-75
2021/03/18 01:43:49;;;;;;;13.45;8.68;;;;;;;6.77;55.03;100625.56;5094433;28;20051;-74
2021/03/18 01:46:54;;;;;;;14.95;9.10;;;;;;;6.75;55.33;100625.66;5094797;28;20118;-74
2021/03/18 01:49:58;;;;;;;15.57;9.52;;;;;;;6.76;54.65;100626.53;5093967;28;20055;-74
2021/03/18 01:53:03;;;;;;;14.45;8.77;;;;;;;6.82;53.85;100607.41;5090325;28;20047;-75
2021/03/18 01:56:08;;;;;;;11.50;8.25;;;;;;;6.87;53.21;100608.81;5092728;28;20043;-76
2021/03/18 01:59:12;;;;;;;13.73;6.22;;;;;;;6.97;49.09;100598.38;5094101;28;20039;-75
2021/03/18 02:02:16;;;;;;;13.52;6.82;;;;;;;6.92;48.68;100603.16;5088240;28;20048;-75
2021/03/18 02:05:20;;;;;;;10.98;6.72;;;;;;;6.81;48.97;100598.59;5092577;28;20043;-77
2021/03/18 02:08:25;;;;;;;15.07;6.90;;;;;;;6.68;49.15;100600.38;5091161;28;20039;-77
2021/03/18 02:11:29;;;;;;;9.68;6.43;;;;;;;6.60;49.12;100594.69;5092688;28;20038;-77
2021/03/18 02:14:34;;;;;;;10.32;5.88;;;;;;;6.57;48.63;100589.56;5090869;28;20035;-74
2021/03/18 02:17:54;;;;;;;8.77;6.03;;;;;;;6.57;47.97;100594.06;5092129;28;20054;-76
2021/03/18 02:21:16;;;;;;;10.10;5.85;;;;;;;6.55;47.41;100587.00;5091710;28;20051;-73
2021/03/18 02:24:39;;;;;;;8.30;4.78;;;;;;;6.53;47.62;100574.75;5091947;28;20039;-73
2021/03/18 02:27:48;;;;;;;10.52;5.22;;;;;;;6.49;47.15;100579.41;5091308;28;20047;-75
2021/03/18 02:31:02;;;;;;;8.32;5.30;;;;;;;6.54;46.96;100574.63;5092483;28;21418;-73
2021/03/18 02:34:09;;;;;;;;;;;;;;;6.54;46.52;100563.94;5093230;28;20039;-74
2021/03/18 02:37:18;;;;;;;8.38;4.82;;;;;;;6.57;46.25;100577.09;5089715;28;19920;-74
2021/03/18 02:40:24;;;;;;;6.95;4.78;;;;;;;6.69;46.17;100614.56;5091095;28;20046;-74
2021/03/18 02:43:57;;;;;;;10.88;6.00;;;;;;;6.63;50.22;100614.97;5092817;28;20054;-73
2021/03/18 02:47:08;;;;;;;9.10;5.43;;;;;;;6.69;50.29;100599.41;5010109;28;20053;-77
2021/03/18 02:50:13;;;;;;;8.90;5.97;;;;;;;6.70;50.48;100601.13;5011098;28;20509;-75
2021/03/18 02:53:18;;;;;;;10.25;6.05;;;;;;;6.82;51.32;100610.09;4995085;28;20049;-77
2021/03/18 02:56:23;;;;;;;13.73;6.05;;;;;;;6.76;52.03;100623.84;5007304;28;20113;-77
2021/03/18 02:59:33;;;;;;;10.50;6.55;;;;;;;6.77;54.25;100626.41;5007756;28;20053;-76
2021/03/18 03:02:39;;;;;;;7.63;5.32;;;;;;;6.61;57.32;100620.41;4994816;28;20397;-76
2021/03/18 03:05:54;;;;;;;11.93;6.28;;;;;;;6.60;57.49;100626.69;5009833;28;20405;-77
2021/03/18 03:09:01;;;;;;;14.20;5.30;;;;;;;6.63;56.92;100622.97;5006465;28;20369;-76
2021/03/18 03:12:07;;;;;;;9.00;5.57;;;;;;;6.64;57.52;100624.69;5007315;28;20100;-76
2021/03/18 03:15:14;;;;;;;11.23;5.15;;;;;;;6.62;58.18;100630.09;5008255;28;20049;-75
2021/03/18 03:18:18;;;;;;;10.63;5.35;;;;;;;6.59;59.07;100632.16;5011535;28;20056;-75
2021/03/18 03:21:24;;;;;;;7.38;5.43;;;;;;;6.56;60.65;100635.88;5006754;28;20048;-76
2021/03/18 03:24:31;;;;;;;8.60;5.30;;;;;;;6.52;62.77;100637.88;5090081;28;20055;-77
2021/03/18 03:27:36;;;;;;;11.02;5.43;;;;;;;6.43;65.03;100637.63;5092036;28;20050;-75
2021/03/18 03:30:41;;;;;;;8.45;4.82;;;;;;;6.42;66.18;100636.78;5091166;28;20046;-75
2021/03/18 03:33:46;;;;;;;9.93;5.07;;;;;;;6.36;67.06;100637.19;5091445;28;20040;-75
2021/03/18 03:36:51;;;;;;;17.25;5.20;;;;;;;6.27;67.88;100643.09;5092042;28;20047;-73
2021/03/18 03:39:56;;;;;;;10.82;4.55;;;;;;;6.21;68.79;100642.66;5091864;28;20047;-74
2021/03/18 03:43:02;;;;;;;11.52;4.60;;;;;;;6.19;69.63;100648.09;5093296;28;20048;-74
2021/03/18 03:46:06;;;;;;;7.97;4.47;;;;;;;6.08;70.43;100650.59;5091165;28;20545;-72
2021/03/18 03:49:10;;;;;;;12.35;4.80;;;;;;;6.07;70.82;100645.38;5092197;28;20051;-75
2021/03/18 03:52:24;;;;;;;14.20;4.60;;;;;;;6.08;71.02;100647.06;5091694;28;20047;-72
2021/03/18 03:55:38;;;;;;;14.77;4.25;;;;;;;6.01;71.25;100645.75;5093305;28;20192;-75
2021/03/18 03:58:53;;;;;;;11.15;4.28;;;;;;;5.90;71.46;100662.41;5090958;28;20062;-73
2021/03/18 04:01:58;;;;;;;10.75;3.78;;;;;;;5.83;71.27;100663.75;5092791;28;20051;-74
2021/03/18 04:05:05;;;;;;;8.88;3.70;;;;;;;5.73;71.36;100663.47;5076280;28;20513;-74
2021/03/18 04:08:13;;;;;;;11.02;3.88;;;;;;;5.65;71.90;100672.91;5091529;28;20051;-76
2021/03/18 04:11:18;;;;;;;10.88;3.72;;;;;;;5.57;71.63;100677.84;5092655;28;20051;-75
2021/03/18 04:14:32;;;;;;;7.45;3.20;;;;;;;5.57;70.82;100684.03;5090144;28;20043;-75
2021/03/18 04:17:40;;;;;;;;;;;;;;;5.54;70.64;100689.53;5093096;28;20054;-74
2021/03/18 04:20:45;;;;;;;8.73;3.00;;;;;;;5.52;70.60;100688.78;5090022;28;19916;-75
2021/03/18 04:23:52;;;;;;;8.68;3.38;;;;;;;5.58;69.96;100683.06;5091384;28;20050;-75
2021/03/18 04:26:56;;;;;;;9.35;3.78;;;;;;;5.57;69.51;100686.69;5092177;28;20043;-74
2021/03/18 04:30:03;;;;;;;9.00;3.20;;;;;;;5.62;69.02;100691.72;5092576;28;20043;-74
2021/03/18 04:33:10;;;;;;;7.05;3.00;;;;;;;5.52;69.19;100694.09;5094455;28;20398;-78
2021/03/18 04:36:15;;;;;;;4.97;2.97;;;;;;;5.49;69.13;100683.63;5095782;28;20059;-78
2021/03/18 04:39:20;;;;;;;11.27;3.40;;;;;;;5.43;69.03;100689.31;5096738;28;20043;-77
2021/03/18 04:42:24;;;;;;;7.47;3.08;;;;;;;5.36;69.54;100690.66;5095667;28;20063;-77
2021/03/18 04:45:30;;;;;;;6.90;3.13;;;;;;;5.35;69.75;100699.59;5093765;28;20067;-74
2021/03/18 04:48:37;;;;;;;6.68;3.20;;;;;;;5.33;69.53;100703.31;5095756;28;20047;-74
2021/03/18 04:51:45;;;;;;;7.80;3.55;;;;;;;5.29;69.77;100699.97;5096113;28;20407;-74
2021/03/18 04:54:49;;;;;;;9.90;3.40;;;;;;;5.26;69.32;100690.34;5094673;28;20039;-74
2021/03/18 04:57:59;;;;;;;5.65;3.78;;;;;;;5.13;69.59;100702.72;5095090;28;20395;-73
2021/03/18 05:01:05;;;;;;;5.13;2.72;;;;;;;5.14;69.69;100707.06;5094006;28;20071;-73
2021/03/18 05:04:10;;;;;;;10.70;4.20;;;;;;;5.18;69.19;100707.75;5094604;28;20516;-72
2021/03/18 05:07:15;;;;;;;7.35;3.67;;;;;;;5.17;69.05;100704.22;5095006;28;20118;-72
2021/03/18 05:10:25;;;;;;;9.05;3.95;;;;;;;5.17;68.65;100703.38;5094909;28;20106;-72
2021/03/18 05:13:31;;;;;;;8.20;3.45;;;;;;;5.06;68.59;100706.66;5095836;28;20039;-73
2021/03/18 05:16:37;;;;;;;8.40;3.40;;;;;;;5.04;68.74;100705.03;5095338;28;20046;-72
2021/03/18 05:19:42;;;;;;;6.90;3.45;;;;;;;5.01;68.73;100707.91;5095618;28;20043;-74
2021/03/18 05:22:47;;;;;;;5.38;3.85;;;;;;;4.87;69.24;100711.34;5094052;28;20047;-75
2021/03/18 05:25:52;;;;;;;6.63;3.08;;;;;;;4.93;69.39;100715.47;5094439;28;20035;-75
2021/03/18 05:28:57;;;;;;;7.07;3.83;;;;;;;4.95;69.32;100705.59;5094986;28;20387;-75
2021/03/18 05:32:01;;;;;;;6.85;3.50;;;;;;;4.92;69.47;100708.44;5095435;28;20039;-76
2021/03/18 05:35:07;;;;;;;10.65;4.05;;;;;;;4.92;69.26;100714.59;5093361;28;20047;-74
2021/03/18 05:38:14;;;;;;;5.22;3.63;;;;;;;4.98;68.99;100718.72;5094212;28;20102;-76
2021/03/18 05:41:19;;;;;;;14.50;4.20;;;;;;;5.03;68.82;100706.88;5095026;28;20055;-75
2021/03/18 05:44:24;;;;;;;9.38;3.70;;;;;;;4.99;68.63;100709.78;5092011;28;20070;-75
2021/03/18 05:47:32;;;;;;;8.52;3.28;;;;;;;4.97;68.76;100723.19;5093542;28;20047;-77
2021/03/18 05:50:40;;;;;;;4.93;2.75;;;;;;;5.04;68.56;100724.53;5094504;28;20039;-76
2021/03/18 05:53:49;;;;;;;7.97;3.05;;;;;;;5.07;68.58;100726.16;5095120;28;20051;-76
2021/03/18 05:56:55;;;;;;;6.90;3.22;;;;;;;5.17;68.24;100722.00;5093956;28;20050;-75
2021/03/18 06:00:11;;;;;;;6.95;2.80;;;;;;;5.24;67.89;100731.31;5099988;28;20070;-74
2021/03/18 06:03:16;;;;;;;6.53;3.08;;;;;;;5.32;67.58;100736.19;5094220;28;20043;-71
2021/03/18 06:06:21;;;;;;;8.43;2.67;;;;;;;5.50;67.09;100738.59;5091245;28;20041;-75
2021/03/18 06:09:27;;;;;;;5.05;2.90;;;;;;;5.64;66.55;100740.41;5092829;28;20043;-74
2021/03/18 06:12:31;;;;;;;53.88;35.17;;;;;;;5.89;66.52;100745.97;5093533;28;20047;-76
2021/03/18 06:15:36;;;;;;;40.10;25.83;;;;;;;6.07;65.46;100741.31;5093048;28;20055;-75
2021/03/18 06:18:40;;;;;;;8.50;3.83;;;;;;;6.28;64.46;100742.59;5091706;28;20063;-73
2021/03/18 06:21:51;;;;;;;6.85;3.10;;;;;;;6.44;63.91;100748.66;5078086;28;20039;-74
2021/03/18 06:24:55;;;;;;;6.25;2.47;;;;;;;6.66;63.81;100754.31;5092909;28;20055;-74
2021/03/18 06:28:20;;;;;;;5.28;2.88;;;;;;;6.79;62.99;100747.22;5094511;28;20051;-74
2021/03/18 06:31:28;;;;;;;4.80;2.75;;;;;;;7.09;62.30;100747.84;5092278;28;20047;-74
2021/03/18 06:34:37;;;;;;;6.18;2.47;;;;;;;7.19;61.84;100742.72;5092287;28;20058;-76
2021/03/18 06:37:56;;;;;;;5.72;2.30;;;;;;;7.21;61.48;100740.81;5094922;28;20043;-76
2021/03/18 06:41:00;;;;;;;9.45;2.85;;;;;;;7.32;61.27;100748.09;5093462;28;20063;-74
2021/03/18 06:44:18;;;;;;;5.93;2.58;;;;;;;7.21;61.53;100749.69;5093475;28;20399;-77
2021/03/18 06:47:22;;;;;;;5.97;2.72;;;;;;;7.31;61.03;100741.91;5094903;28;20383;-76
2021/03/18 06:50:37;;;;;;;7.95;2.53;;;;;;;7.52;60.95;100747.59;5095126;28;20043;-78
2021/03/18 06:53:42;;;;;;;5.80;3.10;;;;;;;8.38;58.72;100744.97;5094539;28;20386;-76
2021/03/18 06:56:57;;;;;;;5.78;2.90;;;;;;;8.60;57.37;100736.25;5093789;28;20051;-76
2021/03/18 07:00:07;;;;;;;6.63;2.85;;;;;;;8.42;57.67;100733.09;5092675;28;20051;-77
2021/03/18 07:03:35;;;;;;;6.28;2.95;;;;;;;7.97;58.53;100731.03;5094461;28;20043;-77
2021/03/18 07:06:39;;;;;;;8.82;3.40;;;;;;;7.91;58.98;100734.13;5094075;28;20051;-74
2021/03/18 07:09:45;;;;;;;6.00;3.05;;;;;;;8.67;57.07;100739.31;5090674;28;20050;-76
2021/03/18 07:12:51;;;;;;;10.15;3.08;;;;;;;8.61;57.91;100732.59;5070544;28;20114;-76
2021/03/18 07:15:58;;;;;;;7.75;3.00;;;;;;;8.71;57.25;100733.63;5085890;28;20055;-77
2021/03/18 07:19:02;;;;;;;7.75;2.80;;;;;;;9.74;54.29;100731.91;5092450;28;20050;-76
2021/03/18 07:22:19;;;;;;;7.70;3.45;;;;;;;12.15;47.23;100736.69;5094118;28;20055;-77
2021/03/18 07:25:29;;;;;;;8.20;2.97;;;;;;;12.89;44.70;100734.47;5093917;28;20395;-76
2021/03/18 07:28:33;;;;;;;3.70;2.30;;;;;;;14.09;42.18;100719.44;5093942;28;20395;-76
2021/03/18 07:31:38;;;;;;;9.00;3.60;;;;;;;16.40;37.56;100726.44;5092930;28;20411;-77
2021/03/18 07:34:44;;;;;;;3.72;2.28;;;;;;;17.61;34.61;100724.88;5093337;28;20047;-73
2021/03/18 07:37:48;;;;;;;5.20;2.50;;;;;;;14.78;40.10;100730.63;5091154;28;20051;-75
2021/03/18 07:40:53;;;;;;;7.60;2.70;;;;;;;13.29;42.80;100719.06;5092662;28;20039;-74
2021/03/18 07:43:58;;;;;;;5.45;2.55;;;;;;;12.20;46.44;100742.50;5092223;28;20506;-77
2021/03/18 07:47:04;;;;;;;6.15;2.90;;;;;;;11.99;48.25;100746.25;5072847;28;20068;-76
2021/03/18 07:50:11;;;;;;;6.07;2.65;;;;;;;11.52;49.62;100753.88;5072853;28;20049;-80
2021/03/18 07:53:19;;;;;;;6.25;2.88;;;;;;;12.47;47.71;100751.84;5073214;28;20227;-78
2021/03/18 07:56:24;;;;;;;6.47;2.90;;;;;;;12.59;46.66;100761.50;5072407;28;20039;-73
2021/03/18 07:59:32;;;;;;;6.38;2.45;;;;;;;13.04;45.40;100763.56;5080301;28;20055;-75
2021/03/18 08:02:37;;;;;;;5.68;3.10;;;;;;;13.38;44.82;100757.81;5093549;28;20048;-75
2021/03/18 08:05:42;;;;;;;6.93;3.08;;;;;;;13.40;43.90;100755.81;5092644;28;20067;-76
2021/03/18 08:08:46;;;;;;;7.95;3.45;;;;;;;13.01;44.94;100763.00;5094666;28;20131;-76
2021/03/18 08:11:51;;;;;;;7.45;3.00;;;;;;;14.02;42.80;100766.91;5095822;28;20055;-75
2021/03/18 08:15:35;;;;;;;5.00;3.00;;;;;;;17.23;36.83;100752.66;5097106;28;20047;-74
2021/03/18 08:18:40;;;;;;;5.90;2.90;;;;;;;20.76;29.72;100746.22;5104212;28;20047;-73
2021/03/18 08:21:46;;;;;;;8.50;3.13;;;;;;;21.07;28.91;100746.00;5097594;28;20051;-72
2021/03/18 08:24:51;;;;;;;8.43;2.95;;;;;;;25.75;23.84;100752.03;5096896;28;20059;-73
2021/03/18 08:27:55;;;;;;;10.07;2.05;;;;;;;28.63;20.91;100743.72;5094862;28;20075;-75
2021/03/18 08:30:59;;;;;;;5.45;2.72;;;;;;;29.95;19.46;100737.72;5096292;28;20075;-75
2021/03/18 08:34:04;;;;;;;4.43;2.17;;;;;;;29.94;18.00;100730.53;5096136;28;20051;-76
2021/03/18 08:37:09;;;;;;;4.57;1.90;;;;;;;25.73;21.70;100743.19;5096969;28;20482;-74
2021/03/18 08:40:19;;;;;;;4.13;2.17;;;;;;;21.00;27.11;100757.84;5092689;28;20047;-76
2021/03/18 08:43:24;;;;;;;4.43;2.10;;;;;;;18.64;30.67;100760.13;5088895;28;20051;-74
2021/03/18 08:46:59;;;;;;;4.22;2.30;;;;;;;17.50;33.11;100764.03;5096263;28;20074;-75
2021/03/18 08:50:08;;;;;;;6.85;2.30;;;;;;;18.04;32.72;100759.81;5058712;28;20451;-75
2021/03/18 08:53:33;;;;;;;4.20;2.30;;;;;;;17.44;34.50;100769.28;5096046;28;20422;-74
2021/03/18 08:56:44;;;;;;;4.82;2.47;;;;;;;17.69;33.70;100770.19;5096307;28;20063;-75
2021/03/18 08:59:51;;;;;;;5.03;2.40;;;;;;;17.34;34.53;100758.59;5096556;28;20498;-75
2021/03/18 09:02:55;;;;;;;6.22;2.80;;;;;;;16.50;35.90;100768.69;5096070;28;20051;-76
2021/03/18 09:06:00;;;;;;;11.10;2.85;;;;;;;17.26;34.88;100765.88;5095914;28;20071;-74
2021/03/18 09:09:06;;;;;;;6.10;2.95;;;;;;;17.90;33.61;100767.81;5096469;28;20055;-75
2021/03/18 09:12:10;;;;;;;7.15;2.67;;;;;;;19.01;32.18;100769.50;5094867;28;20514;-74
2021/03/18 09:15:37;;;;;;;9.23;2.78;;;;;;;18.57;31.58;100755.56;5095517;28;20107;-75
2021/03/18 09:18:41;;;;;;;6.28;2.70;;;;;;;17.51;34.46;100762.19;5094257;28;20043;-73
2021/03/18 09:21:45;;;;;;;4.95;2.33;;;;;;;17.57;34.56;100753.41;5096160;28;20043;-76
2021/03/18 09:24:54;;;;;;;5.40;2.35;;;;;;;17.01;35.48;100756.84;5095936;28;20071;-75
2021/03/18 09:27:59;;;;;;;5.82;2.10;;;;;;;16.08;35.96;100752.38;5094801;28;20055;-75
2021/03/18 09:31:06;;;;;;;9.65;2.53;;;;;;;14.65;37.45;100759.84;5096022;28;20059;-76
2021/03/18 09:34:10;;;;;;;7.00;2.60;;;;;;;13.90;39.62;100754.56;5095666;28;20126;-75
2021/03/18 09:37:15;;;;;;;5.40;2.63;;;;;;;13.78;40.17;100746.78;5094883;28;20051;-76
2021/03/18 09:40:31;;;;;;;7.05;2.58;;;;;;;13.38;39.86;100739.75;5096045;28;20047;-77
2021/03/18 09:43:35;;;;;;;5.53;2.30;;;;;;;13.01;40.94;100744.97;5095696;28;20351;-76
2021/03/18 09:46:45;;;;;;;6.63;2.70;;;;;;;12.80;41.88;100738.00;5094079;28;20580;-75
2021/03/18 09:49:52;;;;;;;7.72;2.60;;;;;;;12.61;42.01;100740.66;5074477;28;20503;-73
2021/03/18 09:53:11;;;;;;;7.18;2.92;;;;;;;12.25;42.07;100745.66;5075139;28;20062;-73
2021/03/18 09:56:15;;;;;;;4.60;2.53;;;;;;;12.58;41.39;100749.00;5075315;28;20047;-76
2021/03/18 09:59:22;;;;;;;7.22;2.20;;;;;;;12.86;40.65;100732.91;5079917;28;20398;-76
2021/03/18 10:02:29;;;;;;;4.45;2.65;;;;;;;12.66;41.90;100723.13;5095452;28;20043;-78
2021/03/18 10:05:35;;;;;;;3.65;2.20;;;;;;;12.52;42.32;100733.44;5095320;28;20478;-77
2021/03/18 10:08:39;;;;;;;5.25;2.45;;;;;;;12.54;42.93;100731.44;5095322;28;20047;-76
2021/03/18 10:11:49;;;;;;;5.93;2.40;;;;;;;12.14;41.16;100728.75;5082728;28;20458;-77
2021/03/18 10:15:10;;;;;;;7.82;2.55;;;;;;;11.76;43.04;100715.97;5094074;28;20051;-77
2021/03/18 10:18:15;;;;;;;5.60;2.08;;;;;;;11.68;41.73;100715.78;5095074;28;20055;-76
2021/03/18 10:21:19;;;;;;;3.67;2.47;;;;;;;11.70;40.97;100716.50;5092945;28;20075;-76
2021/03/18 10:24:23;;;;;;;4.43;2.25;;;;;;;11.57;40.73;100718.50;5094911;28;20047;-75
2021/03/18 10:27:40;;;;;;;3.65;1.83;;;;;;;11.35;39.36;100714.13;5094591;28;20589;-75
2021/03/18 10:30:49;;;;;;;7.45;1.95;;;;;;;11.54;39.05;100708.03;5094284;28;20043;-78
2021/03/18 10:33:54;;;;;;;5.15;1.73;;;;;;;11.69;37.44;100717.47;5093960;28;20478;-74
2021/03/18 10:36:58;;;;;;;3.97;2.47;;;;;;;11.80;38.15;100709.31;5094608;28;20399;-75
2021/03/18 10:40:26;;;;;;;3.33;1.90;;;;;;;11.80;38.08;100714.69;5081902;28;20379;-76
2021/03/18 10:43:17;;;;;;;3.95;2.05;;;;;;;11.77;39.34;100717.69;5070429;27;20368;-77
2021/03/18 10:46:37;;;;;;;3.38;1.95;;;;;;;11.55;39.84;100712.44;5070421;28;20455;-76
2021/03/18 10:49:52;;;;;;;4.25;2.03;;;;;;;11.50;38.77;100722.72;5070626;28;20424;-77
2021/03/18 10:53:03;;;;;;;5.25;1.90;;;;;;;11.46;37.13;100715.88;5070504;28;20066;-77
2021/03/18 10:56:10;;;;;;;5.43;2.05;;;;;;;11.60;37.27;100704.81;5070677;28;20052;-75
2021/03/18 10:59:21;;;;;;;5.68;2.38;;;;;;;11.56;40.89;100703.34;5070397;28;20052;-77
2021/03/18 11:02:30;;;;;;;7.70;2.13;;;;;;;11.56;40.89;100706.91;5070482;28;20052;-76
2021/03/18 11:05:46;;;;;;;5.10;2.30;;;;;;;11.31;40.37;100701.06;5070808;28;20052;-77
2021/03/18 11:08:55;;;;;;;5.50;2.35;;;;;;;11.30;39.98;100710.13;5070455;28;20388;-76
2021/03/18 11:12:03;;;;;;;5.40;2.45;;;;;;;11.29;39.10;100694.97;5070330;28;20048;-76
2021/03/18 11:15:10;;;;;;;4.93;2.10;;;;;;;11.22;37.91;100696.47;5066801;28;20056;-76
2021/03/18 11:18:15;;;;;;;4.15;2.20;;;;;;;11.16;38.93;100692.47;5069611;28;20052;-75
2021/03/18 11:21:24;;;;;;;3.10;2.00;;;;;;;11.18;39.09;100689.69;5070008;28;20074;-73
2021/03/18 11:24:29;;;;;;;3.15;2.00;;;;;;;11.55;39.22;100686.38;5070176;28;20047;-74
2021/03/18 11:27:34;;;;;;;3.80;2.30;;;;;;;11.77;37.96;100676.47;5069233;28;20048;-73
2021/03/18 11:30:41;;;;;;;7.38;3.30;;;;;;;12.03;39.19;100678.56;5069812;28;20044;-74
2021/03/18 11:33:46;;;;;;;4.93;2.50;;;;;;;12.01;40.38;100680.56;5069028;28;20048;-75
2021/03/18 11:36:53;;;;;;;6.35;2.80;;;;;;;11.88;40.90;100682.63;5069799;28;20051;-74
2021/03/18 11:39:57;;;;;;;6.55;2.60;;;;;;;11.52;41.00;100672.34;5069872;28;20044;-76
2021/03/18 11:43:03;;;;;;;5.80;2.30;;;;;;;11.42;42.09;100666.06;5068111;28;20412;-77
2021/03/18 11:46:07;;;;;;;6.30;2.47;;;;;;;11.44;42.15;100667.66;5069775;28;20060;-76
2021/03/18 11:49:12;;;;;;;4.20;2.33;;;;;;;11.16;40.93;100678.22;5069626;28;20391;-76
2021/03/18 11:52:17;;;;;;;7.38;2.17;;;;;;;11.04;41.74;100659.44;5067821;28;20043;-73
2021/03/18 11:55:24;;;;;;;6.15;1.83;;;;;;;10.88;43.47;100655.50;5055529;28;20167;-76
2021/03/18 11:58:28;;;;;;;4.50;1.92;;;;;;;10.56;44.59;100650.16;5055873;28;20056;-74
2021/03/18 12:01:35;;;;;;;7.18;2.15;;;;;;;10.26;46.00;100653.53;5055976;28;20056;-74
2021/03/18 12:04:39;;;;;;;3.88;2.10;;;;;;;10.27;46.99;100644.47;5055073;28;20059;-75
2021/03/18 12:07:52;;;;;;;5.47;2.08;;;;;;;10.11;46.52;100643.16;5056173;28;20056;-74
2021/03/18 12:10:56;;;;;;;4.55;2.30;;;;;;;10.07;46.25;100633.66;5055956;28;20155;-74
2021/03/18 12:14:01;;;;;;;3.78;2.10;;;;;;;9.99;46.99;100644.16;5055816;28;20056;-74
2021/03/18 12:17:05;;;;;;;5.65;2.45;;;;;;;10.12;46.77;100626.97;5055761;28;20056;-72
2021/03/18 12:20:15;;;;;;;3.25;2.42;;;;;;;10.12;46.41;100628.81;5055747;28;20052;-75
2021/03/18 12:23:20;;;;;;;4.22;2.42;;;;;;;10.26;47.17;100624.03;5055567;28;20051;-75
2021/03/18 12:26:24;;;;;;;7.38;2.38;;;;;;;10.47;45.81;100612.50;5055548;28;20495;-74
2021/03/18 12:29:29;;;;;;;3.63;1.90;;;;;;;10.75;44.54;100615.41;5055501;28;20048;-75
2021/03/18 12:32:34;;;;;;;5.07;2.38;;;;;;;10.77;43.44;100609.91;5054341;28;20531;-74
2021/03/18 12:35:38;;;;;;;4.10;2.33;;;;;;;10.73;44.20;100601.28;5055393;28;20052;-77
2021/03/18 12:38:43;;;;;;;3.58;2.42;;;;;;;10.95;43.39;100602.97;5055283;28;20048;-76
2021/03/18 12:41:47;;;;;;;4.00;2.10;;;;;;;10.90;41.95;100589.09;5054662;28;20047;-75
2021/03/18 12:44:51;;;;;;;5.35;1.95;;;;;;;10.78;40.80;100593.69;5054469;28;20060;-75
2021/03/18 12:47:56;;;;;;;6.47;2.20;;;;;;;10.76;40.00;100578.69;5054989;28;20074;-74
2021/03/18 12:51:00;;;;;;;9.23;2.20;;;;;;;10.68;39.34;100573.97;5054952;28;20044;-75
2021/03/18 12:54:06;;;;;;;4.32;2.15;;;;;;;10.81;38.46;100563.03;5054081;28;20044;-75
2021/03/18 12:57:10;;;;;;;3.75;2.05;;;;;;;10.74;41.46;100557.31;5054764;28;20052;-75
2021/03/18 13:00:18;;;;;;;4.93;2.00;;;;;;;10.93;39.98;100551.25;5054990;28;20151;-74
2021/03/18 13:03:22;;;;;;;2.75;1.63;;;;;;;10.94;39.17;100560.97;5054874;28;20059;-76
2021/03/18 13:06:26;;;;;;;4.90;1.85;;;;;;;10.88;38.63;100577.63;5054288;28;20060;-77
2021/03/18 13:09:30;;;;;;;5.40;1.83;;;;;;;10.90;39.44;100559.56;5054281;28;20480;-76
2021/03/18 13:12:34;;;;;;;3.15;2.20;;;;;;;10.87;38.75;100557.97;5054768;28;20072;-75
2021/03/18 13:15:39;;;;;;;5.50;2.13;;;;;;;10.87;39.27;100566.03;5054818;28;20056;-73
2021/03/18 13:18:43;;;;;;;3.03;1.77;;;;;;;10.92;38.07;100552.22;5053681;28;20124;-77
2021/03/18 13:21:52;;;;;;;7.55;1.75;;;;;;;10.92;37.65;100545.00;5054632;28;20068;-73
2021/03/18 13:24:56;;;;;;;3.10;1.70;;;;;;;10.92;36.53;100547.69;5054566;28;20048;-76
2021/03/18 13:28:01;;;;;;;5.65;1.90;;;;;;;10.82;38.14;100548.59;5054393;28;20052;-76
2021/03/18 13:31:05;;;;;;;4.10;2.13;;;;;;;10.87;38.61;100544.56;5054484;28;20376;-77
2021/03/18 13:34:13;;;;;;;4.00;2.35;;;;;;;10.88;37.83;100543.59;5054369;28;20052;-72
2021/03/18 13:37:18;;;;;;;3.45;1.70;;;;;;;10.85;37.17;100543.84;5054348;28;20060;-72
2021/03/18 13:40:23;;;;;;;2.83;1.60;;;;;;;10.86;36.92;100542.00;5053164;28;20052;-74
2021/03/18 13:43:28;;;;;;;6.90;1.75;;;;;;;10.94;36.30;100528.75;5053071;28;20052;-74
2021/03/18 13:46:33;;;;;;;6.88;1.60;;;;;;;11.00;35.97;100533.59;5054194;28;20491;-78
2021/03/18 13:49:37;;;;;;;4.57;1.60;;;;;;;10.91;36.03;100532.56;5054171;28;20052;-78
2021/03/18 13:52:41;;;;;;;4.25;2.00;;;;;;;11.04;36.26;100527.81;5048759;28;20060;-77
2021/03/18 13:55:46;;;;;;;3.47;1.58;;;;;;;10.93;35.36;100519.00;5033869;28;20052;-74
2021/03/18 13:58:50;;;;;;;2.95;1.65;;;;;;;11.06;35.73;100522.31;5033998;28;20052;-76
2021/03/18 14:01:55;;;;;;;2.88;1.50;;;;;;;10.98;35.44;100509.56;5052682;28;20052;-73
2021/03/18 14:04:59;;;;;;;3.50;1.77;;;;;;;10.98;36.19;100514.94;5053534;28;20060;-74
2021/03/18 14:08:05;;;;;;;3.15;1.60;;;;;;;11.05;35.19;100509.88;5032996;28;20045;-75
2021/03/18 14:11:09;;;;;;;3.75;1.70;;;;;;;11.03;34.93;100507.34;5033773;28;20045;-76
2021/03/18 14:14:14;;;;;;;2.92;1.42;;;;;;;11.10;34.84;100489.69;5048795;28;20056;-76
2021/03/18 14:17:18;;;;;;;3.10;1.50;;;;;;;11.20;35.05;100486.19;5053344;28;20104;-76
2021/03/18 14:20:27;;;;;;;4.10;1.70;;;;;;;10.99;35.03;100492.47;5052761;28;20048;-76
2021/03/18 14:23:32;;;;;;;4.05;1.40;;;;;;;10.99;35.32;100483.53;5053433;28;20056;-73
2021/03/18 14:26:36;;;;;;;2.90;1.50;;;;;;;11.05;35.72;100491.94;5053149;28;20048;-76
2021/03/18 14:29:41;;;;;;;2.92;1.60;;;;;;;11.11;35.26;100485.16;5032356;28;20044;-76
2021/03/18 14:32:46;;;;;;;2.40;1.40;;;;;;;11.08;34.73;100485.44;5032371;28;20060;-77